sensor_id;sensor_type;location;lat;lon;timestamp;P1;durP1;ratioP1;P2;durP2;ratioP2
17564;SDS011;62994;52.126;5.596;2024-02-21T00:00:45;6.68;;;5.72;;
17564;SDS011;62994;52.126;5.596;2024-02-21T00:03:36;5.82;;;5.18;;
17564;SDS011;62994;52.126;5.596;2024-02-21T00:06:48;12.68;;;5.60;;
17564;SDS011;62994;52.126;5.596;2024-02-21T00:09:17;6.72;;;5.18;;
17564;SDS011;62994;52.126;5.596;2024-02-21T00:12:27;7.43;;;5.30;;
17564;SDS011;62994;52.126;5.596;2024-02-21T00:15:09;6.53;;;5.50;;
17564;SDS011;62994;52.126;5.596;2024-02-21T00:34:09;12.02;;;4.75;;
17564;SDS011;62994;52.126;5.596;2024-02-21T00:36:50;8.50;;;5.10;;
17564;SDS011;62994;52.126;5.596;2024-02-21T00:56:05;8.25;;;5.18;;
17564;SDS011;62994;52.126;5.596;2024-02-21T00:59:21;15.18;;;4.65;;
17564;SDS011;62994;52.126;5.596;2024-02-21T01:08:17;8.25;;;4.18;;
17564;SDS011;62994;52.126;5.596;2024-02-21T01:10:53;7.10;;;4.53;;
17564;SDS011;62994;52.126;5.596;2024-02-21T01:17:12;8.30;;;4.68;;
17564;SDS011;62994;52.126;5.596;2024-02-21T01:23:15;6.82;;;4.75;;
17564;SDS011;62994;52.126;5.596;2024-02-21T01:29:18;5.97;;;4.35;;
17564;SDS011;62994;52.126;5.596;2024-02-21T01:31:50;10.13;;;4.50;;
17564;SDS011;62994;52.126;5.596;2024-02-21T01:34:40;7.57;;;4.60;;
17564;SDS011;62994;52.126;5.596;2024-02-21T01:37:14;11.25;;;4.35;;
17564;SDS011;62994;52.126;5.596;2024-02-21T01:40:06;7.72;;;4.45;;
17564;SDS011;62994;52.126;5.596;2024-02-21T01:46:18;8.63;;;4.82;;
17564;SDS011;62994;52.126;5.596;2024-02-21T01:52:39;7.72;;;4.60;;
17564;SDS011;62994;52.126;5.596;2024-02-21T01:55:17;8.40;;;4.85;;
17564;SDS011;62994;52.126;5.596;2024-02-21T01:58:31;15.65;;;5.38;;
17564;SDS011;62994;52.126;5.596;2024-02-21T02:05:11;6.00;;;5.25;;
17564;SDS011;62994;52.126;5.596;2024-02-21T02:07:51;8.32;;;5.63;;
17564;SDS011;62994;52.126;5.596;2024-02-21T02:17:48;6.40;;;4.72;;
17564;SDS011;62994;52.126;5.596;2024-02-21T02:34:30;6.78;;;4.63;;
17564;SDS011;62994;52.126;5.596;2024-02-21T02:40:44;10.02;;;5.72;;
17564;SDS011;62994;52.126;5.596;2024-02-21T02:43:18;8.85;;;5.20;;
17564;SDS011;62994;52.126;5.596;2024-02-21T02:46:02;8.80;;;6.03;;
17564;SDS011;62994;52.126;5.596;2024-02-21T02:48:50;11.55;;;5.95;;
17564;SDS011;62994;52.126;5.596;2024-02-21T03:15:21;7.65;;;5.03;;
17564;SDS011;62994;52.126;5.596;2024-02-21T03:28:42;7.68;;;4.93;;
17564;SDS011;62994;52.126;5.596;2024-02-21T03:31:29;13.15;;;6.00;;
17564;SDS011;62994;52.126;5.596;2024-02-21T03:34:36;9.75;;;5.80;;
17564;SDS011;62994;52.126;5.596;2024-02-21T03:41:12;8.88;;;5.95;;
17564;SDS011;62994;52.126;5.596;2024-02-21T03:47:09;9.77;;;5.90;;
17564;SDS011;62994;52.126;5.596;2024-02-21T03:53:17;12.63;;;5.97;;
17564;SDS011;62994;52.126;5.596;2024-02-21T04:03:00;8.68;;;5.60;;
17564;SDS011;62994;52.126;5.596;2024-02-21T04:05:36;7.53;;;5.63;;
17564;SDS011;62994;52.126;5.596;2024-02-21T04:15:09;8.15;;;6.18;;
17564;SDS011;62994;52.126;5.596;2024-02-21T04:44:23;6.88;;;5.63;;
17564;SDS011;62994;52.126;5.596;2024-02-21T04:50:27;6.80;;;5.95;;
17564;SDS011;62994;52.126;5.596;2024-02-21T04:57:08;6.00;;;5.43;;
17564;SDS011;62994;52.126;5.596;2024-02-21T05:03:28;11.98;;;6.10;;
17564;SDS011;62994;52.126;5.596;2024-02-21T05:13:47;13.65;;;5.32;;
17564;SDS011;62994;52.126;5.596;2024-02-21T05:22:34;7.63;;;5.97;;
17564;SDS011;62994;52.126;5.596;2024-02-21T05:32:19;8.35;;;6.60;;
17564;SDS011;62994;52.126;5.596;2024-02-21T05:38:26;6.55;;;5.88;;
17564;SDS011;62994;52.126;5.596;2024-02-21T05:41:12;8.35;;;6.05;;
17564;SDS011;62994;52.126;5.596;2024-02-21T05:50:41;8.18;;;5.72;;
17564;SDS011;62994;52.126;5.596;2024-02-21T05:53:21;7.13;;;5.93;;
17564;SDS011;62994;52.126;5.596;2024-02-21T05:56:21;7.43;;;6.60;;
17564;SDS011;62994;52.126;5.596;2024-02-21T06:02:35;9.35;;;6.80;;
17564;SDS011;62994;52.126;5.596;2024-02-21T06:09:12;11.32;;;6.57;;
17564;SDS011;62994;52.126;5.596;2024-02-21T06:11:56;9.98;;;6.53;;
17564;SDS011;62994;52.126;5.596;2024-02-21T06:18:42;11.50;;;7.28;;
17564;SDS011;62994;52.126;5.596;2024-02-21T06:21:15;9.15;;;7.28;;
17564;SDS011;62994;52.126;5.596;2024-02-21T06:24:12;14.18;;;8.32;;
17564;SDS011;62994;52.126;5.596;2024-02-21T06:27:10;11.52;;;7.55;;
17564;SDS011;62994;52.126;5.596;2024-02-21T06:31:22;12.15;;;8.23;;
17564;SDS011;62994;52.126;5.596;2024-02-21T06:43:26;20.08;;;10.18;;
17564;SDS011;62994;52.126;5.596;2024-02-21T06:49:53;16.80;;;10.50;;
17564;SDS011;62994;52.126;5.596;2024-02-21T06:56:04;15.20;;;10.10;;
17564;SDS011;62994;52.126;5.596;2024-02-21T06:58:55;20.40;;;10.80;;
17564;SDS011;62994;52.126;5.596;2024-02-21T07:02:23;19.13;;;10.23;;
17564;SDS011;62994;52.126;5.596;2024-02-21T07:04:54;18.08;;;9.77;;
17564;SDS011;62994;52.126;5.596;2024-02-21T07:07:32;14.57;;;9.90;;
17564;SDS011;62994;52.126;5.596;2024-02-21T07:10:09;17.65;;;9.18;;
17564;SDS011;62994;52.126;5.596;2024-02-21T07:12:51;17.52;;;10.27;;
17564;SDS011;62994;52.126;5.596;2024-02-21T07:15:31;15.32;;;9.00;;
17564;SDS011;62994;52.126;5.596;2024-02-21T07:18:05;14.43;;;9.30;;
17564;SDS011;62994;52.126;5.596;2024-02-21T07:21:07;13.38;;;8.45;;
17564;SDS011;62994;52.126;5.596;2024-02-21T07:24:07;14.77;;;9.07;;
17564;SDS011;62994;52.126;5.596;2024-02-21T07:26:54;16.80;;;8.85;;
17564;SDS011;62994;52.126;5.596;2024-02-21T07:29:32;17.38;;;8.77;;
17564;SDS011;62994;52.126;5.596;2024-02-21T07:35:09;14.15;;;8.07;;
17564;SDS011;62994;52.126;5.596;2024-02-21T07:37:37;17.90;;;8.20;;
17564;SDS011;62994;52.126;5.596;2024-02-21T07:40:19;9.73;;;8.10;;
17564;SDS011;62994;52.126;5.596;2024-02-21T07:43:48;11.88;;;7.78;;
17564;SDS011;62994;52.126;5.596;2024-02-21T07:46:24;14.18;;;7.70;;
17564;SDS011;62994;52.126;5.596;2024-02-21T07:49:08;7.38;;;6.53;;
17564;SDS011;62994;52.126;5.596;2024-02-21T07:51:47;8.57;;;7.50;;
17564;SDS011;62994;52.126;5.596;2024-02-21T07:54:39;12.38;;;8.77;;
17564;SDS011;62994;52.126;5.596;2024-02-21T07:57:15;9.82;;;7.55;;
17564;SDS011;62994;52.126;5.596;2024-02-21T07:59:52;8.70;;;6.95;;
17564;SDS011;62994;52.126;5.596;2024-02-21T08:03:07;12.63;;;7.68;;
17564;SDS011;62994;52.126;5.596;2024-02-21T08:05:42;8.63;;;7.10;;
17564;SDS011;62994;52.126;5.596;2024-02-21T08:15:20;9.57;;;7.90;;
17564;SDS011;62994;52.126;5.596;2024-02-21T08:18:01;11.32;;;7.85;;
17564;SDS011;62994;52.126;5.596;2024-02-21T08:20:47;8.18;;;7.10;;
17564;SDS011;62994;52.126;5.596;2024-02-21T08:23:23;12.43;;;8.13;;
17564;SDS011;62994;52.126;5.596;2024-02-21T08:26:18;8.90;;;7.57;;
17564;SDS011;62994;52.126;5.596;2024-02-21T08:28:53;14.80;;;7.97;;
17564;SDS011;62994;52.126;5.596;2024-02-21T08:31:42;13.75;;;7.22;;
17564;SDS011;62994;52.126;5.596;2024-02-21T08:34:38;9.70;;;8.10;;
17564;SDS011;62994;52.126;5.596;2024-02-21T08:37:14;8.15;;;7.35;;
17564;SDS011;62994;52.126;5.596;2024-02-21T08:40:03;9.02;;;6.78;;
17564;SDS011;62994;52.126;5.596;2024-02-21T08:42:39;9.15;;;6.93;;
17564;SDS011;62994;52.126;5.596;2024-02-21T08:45:31;14.40;;;8.27;;
17564;SDS011;62994;52.126;5.596;2024-02-21T08:48:01;10.95;;;6.88;;
17564;SDS011;62994;52.126;5.596;2024-02-21T08:50:45;12.63;;;7.57;;
17564;SDS011;62994;52.126;5.596;2024-02-21T08:53:27;10.13;;;7.40;;
17564;SDS011;62994;52.126;5.596;2024-02-21T08:56:08;8.35;;;7.47;;
17564;SDS011;62994;52.126;5.596;2024-02-21T08:58:50;10.20;;;7.45;;
17564;SDS011;62994;52.126;5.596;2024-02-21T09:01:22;11.77;;;7.20;;
17564;SDS011;62994;52.126;5.596;2024-02-21T09:04:11;9.18;;;6.55;;
17564;SDS011;62994;52.126;5.596;2024-02-21T09:06:52;7.65;;;6.05;;
17564;SDS011;62994;52.126;5.596;2024-02-21T09:13:30;10.75;;;6.93;;
17564;SDS011;62994;52.126;5.596;2024-02-21T09:16:09;9.07;;;6.57;;
17564;SDS011;62994;52.126;5.596;2024-02-21T09:19:14;8.75;;;7.35;;
17564;SDS011;62994;52.126;5.596;2024-02-21T09:21:53;10.57;;;7.60;;
17564;SDS011;62994;52.126;5.596;2024-02-21T09:24:34;7.30;;;6.50;;
17564;SDS011;62994;52.126;5.596;2024-02-21T09:27:30;6.93;;;6.10;;
17564;SDS011;62994;52.126;5.596;2024-02-21T09:30:08;7.22;;;6.57;;
17564;SDS011;62994;52.126;5.596;2024-02-21T09:32:49;8.40;;;6.85;;
17564;SDS011;62994;52.126;5.596;2024-02-21T09:35:34;9.32;;;6.88;;
17564;SDS011;62994;52.126;5.596;2024-02-21T09:38:14;9.52;;;6.65;;
17564;SDS011;62994;52.126;5.596;2024-02-21T09:41:14;8.25;;;6.13;;
17564;SDS011;62994;52.126;5.596;2024-02-21T09:43:55;7.22;;;6.38;;
17564;SDS011;62994;52.126;5.596;2024-02-21T09:46:34;7.50;;;6.63;;
17564;SDS011;62994;52.126;5.596;2024-02-21T09:49:11;6.57;;;5.97;;
17564;SDS011;62994;52.126;5.596;2024-02-21T09:52:03;6.97;;;6.28;;
17564;SDS011;62994;52.126;5.596;2024-02-21T09:54:34;7.25;;;6.40;;
17564;SDS011;62994;52.126;5.596;2024-02-21T09:57:23;9.38;;;6.20;;
17564;SDS011;62994;52.126;5.596;2024-02-21T10:00:27;8.10;;;5.82;;
17564;SDS011;62994;52.126;5.596;2024-02-21T10:02:58;7.30;;;5.72;;
17564;SDS011;62994;52.126;5.596;2024-02-21T10:05:35;7.03;;;5.70;;
17564;SDS011;62994;52.126;5.596;2024-02-21T10:08:07;10.30;;;6.03;;
17564;SDS011;62994;52.126;5.596;2024-02-21T10:10:56;9.20;;;5.45;;
17564;SDS011;62994;52.126;5.596;2024-02-21T10:13:29;7.15;;;6.00;;
17564;SDS011;62994;52.126;5.596;2024-02-21T10:16:15;8.75;;;6.13;;
17564;SDS011;62994;52.126;5.596;2024-02-21T10:26:16;5.40;;;5.00;;
17564;SDS011;62994;52.126;5.596;2024-02-21T10:29:00;5.38;;;4.88;;
17564;SDS011;62994;52.126;5.596;2024-02-21T10:35:05;5.53;;;4.55;;
17564;SDS011;62994;52.126;5.596;2024-02-21T10:37:47;5.15;;;4.60;;
17564;SDS011;62994;52.126;5.596;2024-02-21T10:40:22;6.30;;;4.88;;
17564;SDS011;62994;52.126;5.596;2024-02-21T10:43:14;4.55;;;4.25;;
17564;SDS011;62994;52.126;5.596;2024-02-21T10:46:14;5.22;;;4.20;;
17564;SDS011;62994;52.126;5.596;2024-02-21T10:49:24;4.90;;;4.40;;
17564;SDS011;62994;52.126;5.596;2024-02-21T10:52:04;6.75;;;4.35;;
17564;SDS011;62994;52.126;5.596;2024-02-21T11:07:49;4.57;;;4.22;;
17564;SDS011;62994;52.126;5.596;2024-02-21T11:10:56;4.35;;;4.03;;
17564;SDS011;62994;52.126;5.596;2024-02-21T11:13:51;4.40;;;4.00;;
17564;SDS011;62994;52.126;5.596;2024-02-21T11:16:34;4.82;;;4.18;;
17564;SDS011;62994;52.126;5.596;2024-02-21T11:19:19;4.75;;;4.40;;
17564;SDS011;62994;52.126;5.596;2024-02-21T11:21:57;6.53;;;4.10;;
17564;SDS011;62994;52.126;5.596;2024-02-21T11:31:45;5.20;;;4.90;;
17564;SDS011;62994;52.126;5.596;2024-02-21T11:44:15;5.68;;;5.15;;
17564;SDS011;62994;52.126;5.596;2024-02-21T11:50:52;5.10;;;4.63;;
17564;SDS011;62994;52.126;5.596;2024-02-21T11:53:02;5.75;;;5.15;;
17564;SDS011;62994;52.126;5.596;2024-02-21T11:55:49;11.35;;;6.25;;
17564;SDS011;62994;52.126;5.596;2024-02-21T12:09:13;5.88;;;5.38;;
17564;SDS011;62994;52.126;5.596;2024-02-21T12:19:24;6.07;;;4.97;;
17564;SDS011;62994;52.126;5.596;2024-02-21T12:21:58;9.27;;;5.25;;
17564;SDS011;62994;52.126;5.596;2024-02-21T12:24:34;5.43;;;4.93;;
17564;SDS011;62994;52.126;5.596;2024-02-21T12:27:11;5.20;;;4.80;;
17564;SDS011;62994;52.126;5.596;2024-02-21T12:29:46;6.13;;;5.50;;
17564;SDS011;62994;52.126;5.596;2024-02-21T12:32:25;6.68;;;4.97;;
17564;SDS011;62994;52.126;5.596;2024-02-21T12:35:24;5.03;;;4.68;;
17564;SDS011;62994;52.126;5.596;2024-02-21T12:37:53;5.40;;;4.70;;
17564;SDS011;62994;52.126;5.596;2024-02-21T12:40:37;4.47;;;4.13;;
17564;SDS011;62994;52.126;5.596;2024-02-21T12:43:20;4.38;;;3.97;;
17564;SDS011;62994;52.126;5.596;2024-02-21T12:45:51;4.68;;;4.22;;
17564;SDS011;62994;52.126;5.596;2024-02-21T12:51:25;4.32;;;4.00;;
17564;SDS011;62994;52.126;5.596;2024-02-21T12:54:12;5.97;;;4.50;;
17564;SDS011;62994;52.126;5.596;2024-02-21T12:56:39;4.68;;;4.25;;
17564;SDS011;62994;52.126;5.596;2024-02-21T12:59:30;8.02;;;3.88;;
17564;SDS011;62994;52.126;5.596;2024-02-21T13:05:51;6.55;;;4.35;;
17564;SDS011;62994;52.126;5.596;2024-02-21T13:08:27;4.75;;;4.22;;
17564;SDS011;62994;52.126;5.596;2024-02-21T13:11:13;5.10;;;3.88;;
17564;SDS011;62994;52.126;5.596;2024-02-21T13:13:49;4.72;;;4.30;;
17564;SDS011;62994;52.126;5.596;2024-02-21T13:16:18;4.43;;;3.90;;
17564;SDS011;62994;52.126;5.596;2024-02-21T13:19:06;4.93;;;4.43;;
17564;SDS011;62994;52.126;5.596;2024-02-21T13:21:39;6.10;;;4.10;;
17564;SDS011;62994;52.126;5.596;2024-02-21T14:05:09;6.68;;;3.80;;
17564;SDS011;62994;52.126;5.596;2024-02-21T14:15:08;5.35;;;3.70;;
17564;SDS011;62994;52.126;5.596;2024-02-21T14:38:14;3.05;;;2.65;;
17564;SDS011;62994;52.126;5.596;2024-02-21T14:41:30;4.28;;;3.10;;
17564;SDS011;62994;52.126;5.596;2024-02-21T14:44:10;4.45;;;2.92;;
17564;SDS011;62994;52.126;5.596;2024-02-21T14:50:04;5.35;;;2.80;;
17564;SDS011;62994;52.126;5.596;2024-02-21T14:52:33;3.83;;;2.67;;
17564;SDS011;62994;52.126;5.596;2024-02-21T14:55:01;4.43;;;2.80;;
17564;SDS011;62994;52.126;5.596;2024-02-21T14:57:30;4.80;;;2.30;;
17564;SDS011;62994;52.126;5.596;2024-02-21T14:59:57;4.25;;;2.88;;
17564;SDS011;62994;52.126;5.596;2024-02-21T15:02:25;3.42;;;2.42;;
17564;SDS011;62994;52.126;5.596;2024-02-21T15:04:53;4.97;;;2.58;;
17564;SDS011;62994;52.126;5.596;2024-02-21T15:07:20;6.78;;;2.90;;
17564;SDS011;62994;52.126;5.596;2024-02-21T15:09:51;3.05;;;2.78;;
17564;SDS011;62994;52.126;5.596;2024-02-21T15:12:19;4.80;;;2.70;;
17564;SDS011;62994;52.126;5.596;2024-02-21T15:14:50;3.47;;;2.80;;
17564;SDS011;62994;52.126;5.596;2024-02-21T15:17:17;6.93;;;2.88;;
17564;SDS011;62994;52.126;5.596;2024-02-21T15:19:45;3.22;;;2.63;;
17564;SDS011;62994;52.126;5.596;2024-02-21T15:22:12;2.90;;;2.70;;
17564;SDS011;62994;52.126;5.596;2024-02-21T15:24:41;2.67;;;2.47;;
17564;SDS011;62994;52.126;5.596;2024-02-21T15:27:09;3.08;;;2.72;;
17564;SDS011;62994;52.126;5.596;2024-02-21T15:29:36;3.28;;;2.85;;
17564;SDS011;62994;52.126;5.596;2024-02-21T15:32:04;3.17;;;2.88;;
17564;SDS011;62994;52.126;5.596;2024-02-21T15:34:32;6.68;;;3.30;;
17564;SDS011;62994;52.126;5.596;2024-02-21T15:37:00;4.13;;;2.80;;
17564;SDS011;62994;52.126;5.596;2024-02-21T15:39:28;3.33;;;2.92;;
17564;SDS011;62994;52.126;5.596;2024-02-21T15:41:55;3.78;;;2.97;;
17564;SDS011;62994;52.126;5.596;2024-02-21T15:44:24;3.97;;;3.08;;
17564;SDS011;62994;52.126;5.596;2024-02-21T15:46:52;4.07;;;3.20;;
17564;SDS011;62994;52.126;5.596;2024-02-21T15:49:20;3.42;;;2.97;;
17564;SDS011;62994;52.126;5.596;2024-02-21T15:51:48;3.13;;;2.78;;
17564;SDS011;62994;52.126;5.596;2024-02-21T15:54:15;5.22;;;3.05;;
17564;SDS011;62994;52.126;5.596;2024-02-21T15:56:43;3.50;;;3.20;;
17564;SDS011;62994;52.126;5.596;2024-02-21T15:59:10;4.75;;;2.83;;
17564;SDS011;62994;52.126;5.596;2024-02-21T16:01:40;5.80;;;3.47;;
17564;SDS011;62994;52.126;5.596;2024-02-21T16:04:08;3.55;;;3.25;;
17564;SDS011;62994;52.126;5.596;2024-02-21T16:06:36;3.75;;;3.30;;
17564;SDS011;62994;52.126;5.596;2024-02-21T16:09:03;3.78;;;3.42;;
17564;SDS011;62994;52.126;5.596;2024-02-21T16:11:32;4.70;;;3.78;;
17564;SDS011;62994;52.126;5.596;2024-02-21T16:14:00;4.13;;;3.72;;
17564;SDS011;62994;52.126;5.596;2024-02-21T16:16:28;4.82;;;3.58;;
17564;SDS011;62994;52.126;5.596;2024-02-21T16:18:57;4.50;;;4.10;;
17564;SDS011;62994;52.126;5.596;2024-02-21T16:21:24;6.78;;;3.70;;
17564;SDS011;62994;52.126;5.596;2024-02-21T16:23:52;4.60;;;3.72;;
17564;SDS011;62994;52.126;5.596;2024-02-21T16:26:21;5.55;;;3.72;;
17564;SDS011;62994;52.126;5.596;2024-02-21T16:28:49;4.57;;;4.18;;
17564;SDS011;62994;52.126;5.596;2024-02-21T16:31:16;4.03;;;3.72;;
17564;SDS011;62994;52.126;5.596;2024-02-21T16:33:43;4.68;;;3.58;;
17564;SDS011;62994;52.126;5.596;2024-02-21T16:36:20;5.63;;;4.13;;
17564;SDS011;62994;52.126;5.596;2024-02-21T16:38:49;5.47;;;4.07;;
17564;SDS011;62994;52.126;5.596;2024-02-21T16:41:17;5.10;;;3.78;;
17564;SDS011;62994;52.126;5.596;2024-02-21T16:43:45;4.55;;;4.05;;
17564;SDS011;62994;52.126;5.596;2024-02-21T16:46:13;4.45;;;3.90;;
17564;SDS011;62994;52.126;5.596;2024-02-21T16:48:41;4.03;;;3.72;;
17564;SDS011;62994;52.126;5.596;2024-02-21T16:51:09;4.78;;;3.60;;
17564;SDS011;62994;52.126;5.596;2024-02-21T16:53:39;5.20;;;3.65;;
17564;SDS011;62994;52.126;5.596;2024-02-21T16:56:06;4.15;;;3.80;;
17564;SDS011;62994;52.126;5.596;2024-02-21T16:58:34;4.60;;;4.03;;
17564;SDS011;62994;52.126;5.596;2024-02-21T17:01:02;4.15;;;3.75;;
17564;SDS011;62994;52.126;5.596;2024-02-21T17:03:31;4.10;;;3.80;;
17564;SDS011;62994;52.126;5.596;2024-02-21T17:05:58;5.95;;;3.47;;
17564;SDS011;62994;52.126;5.596;2024-02-21T17:08:26;4.43;;;4.03;;
17564;SDS011;62994;52.126;5.596;2024-02-21T17:10:55;3.95;;;3.13;;
17564;SDS011;62994;52.126;5.596;2024-02-21T17:13:23;3.58;;;3.28;;
17564;SDS011;62994;52.126;5.596;2024-02-21T17:15:51;7.47;;;3.60;;
17564;SDS011;62994;52.126;5.596;2024-02-21T17:18:18;5.13;;;4.00;;
17564;SDS011;62994;52.126;5.596;2024-02-21T17:20:47;4.45;;;3.40;;
17564;SDS011;62994;52.126;5.596;2024-02-21T17:23:15;4.18;;;3.50;;
17564;SDS011;62994;52.126;5.596;2024-02-21T17:25:42;3.42;;;3.17;;
17564;SDS011;62994;52.126;5.596;2024-02-21T17:28:11;5.10;;;3.33;;
17564;SDS011;62994;52.126;5.596;2024-02-21T17:30:39;5.60;;;3.55;;
17564;SDS011;62994;52.126;5.596;2024-02-21T17:33:06;3.70;;;3.40;;
17564;SDS011;62994;52.126;5.596;2024-02-21T17:35:33;4.32;;;3.92;;
17564;SDS011;62994;52.126;5.596;2024-02-21T17:38:01;4.30;;;3.90;;
17564;SDS011;62994;52.126;5.596;2024-02-21T17:40:30;5.85;;;3.60;;
17564;SDS011;62994;52.126;5.596;2024-02-21T17:42:58;4.28;;;4.05;;
17564;SDS011;62994;52.126;5.596;2024-02-21T17:45:27;4.45;;;3.65;;
17564;SDS011;62994;52.126;5.596;2024-02-21T17:47:54;4.63;;;4.30;;
17564;SDS011;62994;52.126;5.596;2024-02-21T17:50:26;4.88;;;3.65;;
17564;SDS011;62994;52.126;5.596;2024-02-21T17:52:53;3.67;;;3.30;;
17564;SDS011;62994;52.126;5.596;2024-02-21T17:55:21;6.90;;;3.78;;
17564;SDS011;62994;52.126;5.596;2024-02-21T17:57:49;5.80;;;4.00;;
17564;SDS011;62994;52.126;5.596;2024-02-21T18:00:16;4.57;;;4.28;;
17564;SDS011;62994;52.126;5.596;2024-02-21T18:02:46;4.25;;;3.95;;
17564;SDS011;62994;52.126;5.596;2024-02-21T18:05:14;7.10;;;4.35;;
17564;SDS011;62994;52.126;5.596;2024-02-21T18:07:42;7.13;;;5.32;;
17564;SDS011;62994;52.126;5.596;2024-02-21T18:10:09;4.10;;;3.70;;
17564;SDS011;62994;52.126;5.596;2024-02-21T18:12:37;3.85;;;3.50;;
17564;SDS011;62994;52.126;5.596;2024-02-21T18:15:05;5.45;;;4.00;;
17564;SDS011;62994;52.126;5.596;2024-02-21T18:17:33;6.28;;;4.60;;
17564;SDS011;62994;52.126;5.596;2024-02-21T18:20:03;4.85;;;4.35;;
17564;SDS011;62994;52.126;5.596;2024-02-21T18:22:31;5.70;;;4.25;;
17564;SDS011;62994;52.126;5.596;2024-02-21T18:24:59;6.63;;;4.30;;
17564;SDS011;62994;52.126;5.596;2024-02-21T18:27:28;4.20;;;3.97;;
17564;SDS011;62994;52.126;5.596;2024-02-21T18:29:56;5.00;;;4.60;;
17564;SDS011;62994;52.126;5.596;2024-02-21T18:32:23;4.22;;;3.92;;
17564;SDS011;62994;52.126;5.596;2024-02-21T18:34:50;3.85;;;3.55;;
17564;SDS011;62994;52.126;5.596;2024-02-21T18:37:19;4.25;;;3.95;;
17564;SDS011;62994;52.126;5.596;2024-02-21T18:39:46;4.03;;;3.70;;
17564;SDS011;62994;52.126;5.596;2024-02-21T18:42:13;5.32;;;3.92;;
17564;SDS011;62994;52.126;5.596;2024-02-21T18:44:40;4.30;;;3.85;;
17564;SDS011;62994;52.126;5.596;2024-02-21T18:47:08;4.45;;;4.07;;
17564;SDS011;62994;52.126;5.596;2024-02-21T18:49:35;3.97;;;3.67;;
17564;SDS011;62994;52.126;5.596;2024-02-21T18:52:03;4.60;;;4.30;;
17564;SDS011;62994;52.126;5.596;2024-02-21T18:54:32;5.07;;;4.57;;
17564;SDS011;62994;52.126;5.596;2024-02-21T18:56:59;4.35;;;3.95;;
17564;SDS011;62994;52.126;5.596;2024-02-21T18:59:26;4.60;;;4.30;;
17564;SDS011;62994;52.126;5.596;2024-02-21T19:01:53;4.88;;;4.47;;
17564;SDS011;62994;52.126;5.596;2024-02-21T19:04:20;4.70;;;4.10;;
17564;SDS011;62994;52.126;5.596;2024-02-21T19:06:49;4.68;;;4.38;;
17564;SDS011;62994;52.126;5.596;2024-02-21T19:09:18;7.78;;;4.78;;
17564;SDS011;62994;52.126;5.596;2024-02-21T19:11:48;4.93;;;4.45;;
17564;SDS011;62994;52.126;5.596;2024-02-21T19:14:15;4.75;;;4.40;;
17564;SDS011;62994;52.126;5.596;2024-02-21T19:16:42;4.28;;;3.90;;
17564;SDS011;62994;52.126;5.596;2024-02-21T19:19:09;5.03;;;4.50;;
17564;SDS011;62994;52.126;5.596;2024-02-21T19:21:36;4.80;;;4.47;;
17564;SDS011;62994;52.126;5.596;2024-02-21T19:24:04;4.57;;;4.28;;
17564;SDS011;62994;52.126;5.596;2024-02-21T19:26:32;4.88;;;4.25;;
17564;SDS011;62994;52.126;5.596;2024-02-21T19:29:00;4.70;;;4.40;;
17564;SDS011;62994;52.126;5.596;2024-02-21T19:31:27;5.57;;;4.97;;
17564;SDS011;62994;52.126;5.596;2024-02-21T19:33:55;4.82;;;4.43;;
17564;SDS011;62994;52.126;5.596;2024-02-21T19:36:23;6.47;;;5.00;;
17564;SDS011;62994;52.126;5.596;2024-02-21T19:38:51;6.40;;;4.80;;
17564;SDS011;62994;52.126;5.596;2024-02-21T19:41:18;5.10;;;4.70;;
17564;SDS011;62994;52.126;5.596;2024-02-21T19:43:45;5.32;;;4.78;;
17564;SDS011;62994;52.126;5.596;2024-02-21T19:46:14;7.13;;;5.32;;
17564;SDS011;62994;52.126;5.596;2024-02-21T19:48:41;5.25;;;5.00;;
17564;SDS011;62994;52.126;5.596;2024-02-21T19:51:08;5.10;;;4.70;;
17564;SDS011;62994;52.126;5.596;2024-02-21T19:53:35;5.53;;;5.15;;
17564;SDS011;62994;52.126;5.596;2024-02-21T19:56:03;4.90;;;4.65;;
17564;SDS011;62994;52.126;5.596;2024-02-21T19:58:32;5.68;;;4.97;;
17564;SDS011;62994;52.126;5.596;2024-02-21T20:00:59;5.03;;;4.72;;
17564;SDS011;62994;52.126;5.596;2024-02-21T20:03:29;4.75;;;4.45;;
17564;SDS011;62994;52.126;5.596;2024-02-21T20:05:57;4.80;;;4.57;;
17564;SDS011;62994;52.126;5.596;2024-02-21T20:08:26;4.78;;;4.47;;
17564;SDS011;62994;52.126;5.596;2024-02-21T20:10:53;4.93;;;4.53;;
17564;SDS011;62994;52.126;5.596;2024-02-21T20:13:20;4.60;;;4.28;;
17564;SDS011;62994;52.126;5.596;2024-02-21T20:15:48;4.97;;;4.65;;
17564;SDS011;62994;52.126;5.596;2024-02-21T20:18:15;6.25;;;4.57;;
17564;SDS011;62994;52.126;5.596;2024-02-21T20:20:45;4.75;;;4.32;;
17564;SDS011;62994;52.126;5.596;2024-02-21T20:23:12;4.60;;;4.40;;
17564;SDS011;62994;52.126;5.596;2024-02-21T20:25:40;4.80;;;4.55;;
17564;SDS011;62994;52.126;5.596;2024-02-21T20:28:12;4.78;;;4.45;;
17564;SDS011;62994;52.126;5.596;2024-02-21T20:30:42;5.22;;;4.78;;
17564;SDS011;62994;52.126;5.596;2024-02-21T20:33:10;5.22;;;4.82;;
17564;SDS011;62994;52.126;5.596;2024-02-21T20:35:38;5.25;;;4.78;;
17564;SDS011;62994;52.126;5.596;2024-02-21T20:38:08;5.20;;;4.80;;
17564;SDS011;62994;52.126;5.596;2024-02-21T20:40:35;4.65;;;4.25;;
17564;SDS011;62994;52.126;5.596;2024-02-21T20:43:03;5.13;;;4.63;;
17564;SDS011;62994;52.126;5.596;2024-02-21T20:45:31;4.72;;;4.43;;
17564;SDS011;62994;52.126;5.596;2024-02-21T20:47:59;5.45;;;4.90;;
17564;SDS011;62994;52.126;5.596;2024-02-21T20:50:26;4.80;;;4.50;;
17564;SDS011;62994;52.126;5.596;2024-02-21T20:52:54;4.45;;;4.20;;
17564;SDS011;62994;52.126;5.596;2024-02-21T20:55:23;4.85;;;4.65;;
17564;SDS011;62994;52.126;5.596;2024-02-21T20:57:50;4.47;;;4.28;;
17564;SDS011;62994;52.126;5.596;2024-02-21T21:00:18;4.63;;;4.32;;
17564;SDS011;62994;52.126;5.596;2024-02-21T21:02:47;5.03;;;4.72;;
17564;SDS011;62994;52.126;5.596;2024-02-21T21:05:14;4.53;;;4.32;;
17564;SDS011;62994;52.126;5.596;2024-02-21T21:07:43;4.63;;;4.43;;
17564;SDS011;62994;52.126;5.596;2024-02-21T21:10:10;4.60;;;4.40;;
17564;SDS011;62994;52.126;5.596;2024-02-21T21:12:40;5.00;;;4.72;;
17564;SDS011;62994;52.126;5.596;2024-02-21T21:15:10;4.38;;;4.18;;
17564;SDS011;62994;52.126;5.596;2024-02-21T21:17:38;5.03;;;4.75;;
17564;SDS011;62994;52.126;5.596;2024-02-21T21:20:06;4.55;;;4.35;;
17564;SDS011;62994;52.126;5.596;2024-02-21T21:22:37;5.03;;;4.72;;
17564;SDS011;62994;52.126;5.596;2024-02-21T21:25:05;4.68;;;4.47;;
17564;SDS011;62994;52.126;5.596;2024-02-21T21:27:34;4.03;;;3.83;;
17564;SDS011;62994;52.126;5.596;2024-02-21T21:30:03;4.63;;;4.32;;
17564;SDS011;62994;52.126;5.596;2024-02-21T21:32:31;4.95;;;4.75;;
17564;SDS011;62994;52.126;5.596;2024-02-21T21:34:58;4.60;;;4.40;;
17564;SDS011;62994;52.126;5.596;2024-02-21T21:37:26;4.13;;;3.92;;
17564;SDS011;62994;52.126;5.596;2024-02-21T21:39:53;4.38;;;4.07;;
17564;SDS011;62994;52.126;5.596;2024-02-21T21:42:21;4.10;;;3.90;;
17564;SDS011;62994;52.126;5.596;2024-02-21T21:44:48;4.53;;;4.22;;
17564;SDS011;62994;52.126;5.596;2024-02-21T21:47:17;4.60;;;4.40;;
17564;SDS011;62994;52.126;5.596;2024-02-21T21:49:46;3.55;;;3.45;;
17564;SDS011;62994;52.126;5.596;2024-02-21T21:52:14;4.03;;;3.80;;
17564;SDS011;62994;52.126;5.596;2024-02-21T21:54:41;4.53;;;4.22;;
17564;SDS011;62994;52.126;5.596;2024-02-21T21:57:08;3.85;;;3.72;;
17564;SDS011;62994;52.126;5.596;2024-02-21T21:59:35;4.05;;;3.85;;
17564;SDS011;62994;52.126;5.596;2024-02-21T22:02:02;3.40;;;3.30;;
17564;SDS011;62994;52.126;5.596;2024-02-21T22:04:31;3.53;;;3.42;;
17564;SDS011;62994;52.126;5.596;2024-02-21T22:06:59;3.30;;;3.20;;
17564;SDS011;62994;52.126;5.596;2024-02-21T22:09:26;3.83;;;3.53;;
17564;SDS011;62994;52.126;5.596;2024-02-21T22:11:53;3.30;;;3.20;;
17564;SDS011;62994;52.126;5.596;2024-02-21T22:14:20;4.05;;;3.85;;